sensor_id;sensor_type;location;lat;lon;timestamp;P1;durP1;ratioP1;P2;durP2;ratioP2
50531;SDS011;36483;37.396;-122.212;2022-12-11T00:01:17;21.10;;;7.40;;
50531;SDS011;36483;37.396;-122.212;2022-12-11T00:03:44;13.48;;;3.10;;
50531;SDS011;36483;37.396;-122.212;2022-12-11T00:06:12;18.00;;;7.68;;
50531;SDS011;36483;37.396;-122.212;2022-12-11T00:08:39;21.98;;;8.98;;
50531;SDS011;36483;37.396;-122.212;2022-12-11T00:11:15;15.63;;;4.65;;
50531;SDS011;36483;37.396;-122.212;2022-12-11T00:13:41;11.65;;;2.40;;
50531;SDS011;36483;37.396;-122.212;2022-12-11T00:16:08;19.27;;;5.00;;
50531;SDS011;36483;37.396;-122.212;2022-12-11T00:18:34;22.10;;;7.50;;
50531;SDS011;36483;37.396;-122.212;2022-12-11T00:21:02;10.77;;;2.95;;
50531;SDS011;36483;37.396;-122.212;2022-12-11T00:23:29;14.20;;;3.58;;
50531;SDS011;36483;37.396;-122.212;2022-12-11T00:25:55;11.93;;;3.58;;
50531;SDS011;36483;37.396;-122.212;2022-12-11T00:28:21;22.08;;;9.27;;
50531;SDS011;36483;37.396;-122.212;2022-12-11T00:30:48;13.88;;;4.68;;
50531;SDS011;36483;37.396;-122.212;2022-12-11T00:33:14;12.55;;;3.47;;
50531;SDS011;36483;37.396;-122.212;2022-12-11T00:35:43;9.95;;;1.95;;
50531;SDS011;36483;37.396;-122.212;2022-12-11T00:38:15;11.03;;;1.93;;
50531;SDS011;36483;37.396;-122.212;2022-12-11T00:40:43;13.23;;;1.77;;
50531;SDS011;36483;37.396;-122.212;2022-12-11T00:43:09;13.90;;;1.95;;
50531;SDS011;36483;37.396;-122.212;2022-12-11T00:45:36;11.07;;;1.92;;
50531;SDS011;36483;37.396;-122.212;2022-12-11T00:48:05;9.27;;;2.15;;
50531;SDS011;36483;37.396;-122.212;2022-12-11T00:50:31;13.05;;;2.50;;
50531;SDS011;36483;37.396;-122.212;2022-12-11T00:52:58;13.13;;;3.15;;
50531;SDS011;36483;37.396;-122.212;2022-12-11T00:55:24;10.00;;;2.50;;
50531;SDS011;36483;37.396;-122.212;2022-12-11T00:57:53;14.38;;;2.10;;
50531;SDS011;36483;37.396;-122.212;2022-12-11T01:00:20;19.25;;;4.00;;
50531;SDS011;36483;37.396;-122.212;2022-12-11T01:02:47;9.00;;;1.90;;
50531;SDS011;36483;37.396;-122.212;2022-12-11T01:05:13;13.63;;;2.75;;
50531;SDS011;36483;37.396;-122.212;2022-12-11T01:07:40;12.98;;;2.40;;
50531;SDS011;36483;37.396;-122.212;2022-12-11T01:10:06;10.70;;;2.15;;
50531;SDS011;36483;37.396;-122.212;2022-12-11T01:13:01;12.48;;;2.40;;
50531;SDS011;36483;37.396;-122.212;2022-12-11T01:15:34;13.60;;;2.75;;
50531;SDS011;36483;37.396;-122.212;2022-12-11T01:18:04;13.93;;;2.28;;
50531;SDS011;36483;37.396;-122.212;2022-12-11T01:20:30;15.70;;;3.40;;
50531;SDS011;36483;37.396;-122.212;2022-12-11T01:22:57;15.63;;;4.10;;
50531;SDS011;36483;37.396;-122.212;2022-12-11T01:25:25;20.00;;;4.65;;
50531;SDS011;36483;37.396;-122.212;2022-12-11T01:27:53;18.38;;;3.40;;
50531;SDS011;36483;37.396;-122.212;2022-12-11T01:30:21;12.30;;;3.20;;
50531;SDS011;36483;37.396;-122.212;2022-12-11T01:32:48;22.58;;;3.58;;
50531;SDS011;36483;37.396;-122.212;2022-12-11T01:35:15;14.85;;;2.67;;
50531;SDS011;36483;37.396;-122.212;2022-12-11T01:37:41;17.52;;;2.42;;
50531;SDS011;36483;37.396;-122.212;2022-12-11T01:40:08;12.07;;;2.58;;
50531;SDS011;36483;37.396;-122.212;2022-12-11T01:42:35;14.60;;;2.63;;
50531;SDS011;36483;37.396;-122.212;2022-12-11T01:47:43;12.32;;;2.20;;
50531;SDS011;36483;37.396;-122.212;2022-12-11T01:50:09;10.38;;;2.47;;
50531;SDS011;36483;37.396;-122.212;2022-12-11T01:52:36;17.65;;;3.42;;
50531;SDS011;36483;37.396;-122.212;2022-12-11T01:55:02;18.30;;;3.67;;
50531;SDS011;36483;37.396;-122.212;2022-12-11T01:57:28;13.57;;;2.55;;
50531;SDS011;36483;37.396;-122.212;2022-12-11T01:59:55;11.48;;;2.03;;
50531;SDS011;36483;37.396;-122.212;2022-12-11T02:02:21;14.75;;;2.55;;
50531;SDS011;36483;37.396;-122.212;2022-12-11T02:04:51;10.13;;;1.73;;
50531;SDS011;36483;37.396;-122.212;2022-12-11T02:07:17;8.30;;;1.65;;
50531;SDS011;36483;37.396;-122.212;2022-12-11T02:09:44;5.57;;;1.02;;
50531;SDS011;36483;37.396;-122.212;2022-12-11T02:12:17;6.35;;;1.08;;
50531;SDS011;36483;37.396;-122.212;2022-12-11T02:28:24;7.22;;;1.33;;
50531;SDS011;36483;37.396;-122.212;2022-12-11T02:30:59;4.05;;;1.40;;
50531;SDS011;36483;37.396;-122.212;2022-12-11T02:36:12;5.85;;;0.88;;
50531;SDS011;36483;37.396;-122.212;2022-12-11T02:38:40;3.35;;;0.90;;
50531;SDS011;36483;37.396;-122.212;2022-12-11T02:41:08;6.93;;;1.52;;
50531;SDS011;36483;37.396;-122.212;2022-12-11T02:43:35;6.00;;;1.10;;
50531;SDS011;36483;37.396;-122.212;2022-12-11T02:46:02;4.25;;;1.00;;
50531;SDS011;36483;37.396;-122.212;2022-12-11T02:48:31;5.55;;;1.08;;
50531;SDS011;36483;37.396;-122.212;2022-12-11T02:50:57;5.88;;;1.13;;
50531;SDS011;36483;37.396;-122.212;2022-12-11T02:53:25;6.38;;;1.25;;
50531;SDS011;36483;37.396;-122.212;2022-12-11T02:55:56;3.78;;;1.15;;
50531;SDS011;36483;37.396;-122.212;2022-12-11T02:58:35;5.10;;;1.10;;
50531;SDS011;36483;37.396;-122.212;2022-12-11T03:01:02;8.02;;;1.30;;
50531;SDS011;36483;37.396;-122.212;2022-12-11T03:03:29;5.10;;;0.88;;
50531;SDS011;36483;37.396;-122.212;2022-12-11T03:05:55;9.35;;;1.55;;
50531;SDS011;36483;37.396;-122.212;2022-12-11T03:08:21;4.68;;;1.17;;
50531;SDS011;36483;37.396;-122.212;2022-12-11T03:10:47;6.82;;;1.20;;
50531;SDS011;36483;37.396;-122.212;2022-12-11T03:13:14;4.28;;;1.42;;
50531;SDS011;36483;37.396;-122.212;2022-12-11T03:26:10;9.20;;;1.77;;
50531;SDS011;36483;37.396;-122.212;2022-12-11T03:31:13;4.70;;;1.23;;
50531;SDS011;36483;37.396;-122.212;2022-12-11T03:33:46;8.77;;;1.67;;
50531;SDS011;36483;37.396;-122.212;2022-12-11T03:36:22;16.63;;;2.30;;
50531;SDS011;36483;37.396;-122.212;2022-12-11T03:39:01;10.20;;;1.92;;
50531;SDS011;36483;37.396;-122.212;2022-12-11T03:41:30;7.60;;;2.22;;
50531;SDS011;36483;37.396;-122.212;2022-12-11T03:43:59;15.07;;;2.60;;
50531;SDS011;36483;37.396;-122.212;2022-12-11T03:46:35;7.47;;;2.00;;
50531;SDS011;36483;37.396;-122.212;2022-12-11T03:49:08;10.18;;;2.30;;
50531;SDS011;36483;37.396;-122.212;2022-12-11T03:51:37;10.93;;;2.40;;
50531;SDS011;36483;37.396;-122.212;2022-12-11T03:54:04;7.35;;;2.13;;
50531;SDS011;36483;37.396;-122.212;2022-12-11T03:56:30;9.45;;;2.40;;
50531;SDS011;36483;37.396;-122.212;2022-12-11T03:58:59;7.20;;;2.35;;
50531;SDS011;36483;37.396;-122.212;2022-12-11T04:01:25;10.70;;;2.60;;
50531;SDS011;36483;37.396;-122.212;2022-12-11T04:03:51;13.82;;;3.15;;
50531;SDS011;36483;37.396;-122.212;2022-12-11T04:06:17;10.85;;;2.72;;
50531;SDS011;36483;37.396;-122.212;2022-12-11T04:08:43;8.35;;;2.10;;
50531;SDS011;36483;37.396;-122.212;2022-12-11T04:11:09;8.95;;;2.50;;
50531;SDS011;36483;37.396;-122.212;2022-12-11T04:13:54;7.47;;;2.22;;
50531;SDS011;36483;37.396;-122.212;2022-12-11T04:16:38;10.10;;;2.70;;
50531;SDS011;36483;37.396;-122.212;2022-12-11T04:19:04;10.00;;;2.47;;
50531;SDS011;36483;37.396;-122.212;2022-12-11T04:21:49;11.73;;;2.25;;
50531;SDS011;36483;37.396;-122.212;2022-12-11T04:24:33;13.95;;;2.53;;
50531;SDS011;36483;37.396;-122.212;2022-12-11T04:26:59;10.15;;;2.40;;
50531;SDS011;36483;37.396;-122.212;2022-12-11T04:29:25;9.07;;;1.75;;
50531;SDS011;36483;37.396;-122.212;2022-12-11T04:31:52;4.80;;;1.25;;
50531;SDS011;36483;37.396;-122.212;2022-12-11T04:34:18;4.03;;;0.88;;
50531;SDS011;36483;37.396;-122.212;2022-12-11T04:36:44;3.53;;;0.85;;
50531;SDS011;36483;37.396;-122.212;2022-12-11T04:39:10;3.15;;;0.90;;
50531;SDS011;36483;37.396;-122.212;2022-12-11T04:41:36;2.13;;;0.60;;
50531;SDS011;36483;37.396;-122.212;2022-12-11T04:44:03;3.42;;;0.70;;
50531;SDS011;36483;37.396;-122.212;2022-12-11T04:46:29;1.55;;;0.40;;
50531;SDS011;36483;37.396;-122.212;2022-12-11T04:48:56;0.93;;;0.52;;
50531;SDS011;36483;37.396;-122.212;2022-12-11T04:51:22;1.85;;;0.55;;
50531;SDS011;36483;37.396;-122.212;2022-12-11T04:53:48;1.92;;;0.50;;
50531;SDS011;36483;37.396;-122.212;2022-12-11T04:56:14;0.77;;;0.47;;
50531;SDS011;36483;37.396;-122.212;2022-12-11T04:58:41;0.77;;;0.40;;
50531;SDS011;36483;37.396;-122.212;2022-12-11T05:01:19;2.20;;;0.60;;
50531;SDS011;36483;37.396;-122.212;2022-12-11T05:03:46;2.47;;;0.80;;
50531;SDS011;36483;37.396;-122.212;2022-12-11T05:06:12;1.23;;;0.50;;
50531;SDS011;36483;37.396;-122.212;2022-12-11T05:08:39;5.70;;;1.05;;
50531;SDS011;36483;37.396;-122.212;2022-12-11T05:11:07;2.17;;;0.77;;
50531;SDS011;36483;37.396;-122.212;2022-12-11T05:13:34;3.72;;;0.68;;
50531;SDS011;36483;37.396;-122.212;2022-12-11T05:16:04;2.38;;;0.77;;
50531;SDS011;36483;37.396;-122.212;2022-12-11T05:18:31;2.58;;;0.88;;
50531;SDS011;36483;37.396;-122.212;2022-12-11T05:20:58;5.15;;;1.00;;
50531;SDS011;36483;37.396;-122.212;2022-12-11T05:23:25;4.82;;;0.77;;
50531;SDS011;36483;37.396;-122.212;2022-12-11T05:25:53;3.15;;;0.60;;
50531;SDS011;36483;37.396;-122.212;2022-12-11T05:28:20;1.13;;;0.60;;
50531;SDS011;36483;37.396;-122.212;2022-12-11T05:30:47;4.90;;;0.70;;
50531;SDS011;36483;37.396;-122.212;2022-12-11T05:33:13;3.63;;;1.10;;
50531;SDS011;36483;37.396;-122.212;2022-12-11T05:35:45;1.88;;;0.60;;
50531;SDS011;36483;37.396;-122.212;2022-12-11T05:38:12;5.78;;;1.10;;
50531;SDS011;36483;37.396;-122.212;2022-12-11T05:40:38;1.70;;;0.65;;
50531;SDS011;36483;37.396;-122.212;2022-12-11T05:43:04;2.47;;;0.77;;
50531;SDS011;36483;37.396;-122.212;2022-12-11T05:45:30;6.07;;;0.82;;
50531;SDS011;36483;37.396;-122.212;2022-12-11T05:47:56;3.80;;;0.70;;
50531;SDS011;36483;37.396;-122.212;2022-12-11T05:50:22;6.53;;;0.85;;
50531;SDS011;36483;37.396;-122.212;2022-12-11T05:52:48;5.82;;;0.65;;
50531;SDS011;36483;37.396;-122.212;2022-12-11T05:55:14;4.47;;;0.90;;
50531;SDS011;36483;37.396;-122.212;2022-12-11T05:57:41;0.90;;;0.50;;
50531;SDS011;36483;37.396;-122.212;2022-12-11T06:00:07;1.55;;;0.60;;
50531;SDS011;36483;37.396;-122.212;2022-12-11T06:02:35;2.67;;;0.65;;
50531;SDS011;36483;37.396;-122.212;2022-12-11T06:05:01;1.17;;;0.47;;
50531;SDS011;36483;37.396;-122.212;2022-12-11T06:07:48;2.38;;;0.50;;
50531;SDS011;36483;37.396;-122.212;2022-12-11T06:10:14;3.55;;;0.80;;
50531;SDS011;36483;37.396;-122.212;2022-12-11T06:12:40;2.75;;;0.75;;
50531;SDS011;36483;37.396;-122.212;2022-12-11T06:15:06;1.50;;;0.50;;
50531;SDS011;36483;37.396;-122.212;2022-12-11T06:17:33;2.97;;;0.60;;
50531;SDS011;36483;37.396;-122.212;2022-12-11T06:19:59;2.55;;;0.45;;
50531;SDS011;36483;37.396;-122.212;2022-12-11T06:22:25;3.67;;;0.60;;
50531;SDS011;36483;37.396;-122.212;2022-12-11T06:24:51;3.47;;;0.93;;
50531;SDS011;36483;37.396;-122.212;2022-12-11T06:27:17;3.55;;;0.65;;
50531;SDS011;36483;37.396;-122.212;2022-12-11T06:29:43;3.72;;;0.70;;
50531;SDS011;36483;37.396;-122.212;2022-12-11T06:32:11;0.93;;;0.52;;
50531;SDS011;36483;37.396;-122.212;2022-12-11T06:34:37;2.15;;;0.60;;
50531;SDS011;36483;37.396;-122.212;2022-12-11T06:37:03;4.53;;;0.60;;
50531;SDS011;36483;37.396;-122.212;2022-12-11T06:39:30;4.47;;;1.05;;
50531;SDS011;36483;37.396;-122.212;2022-12-11T06:41:56;4.40;;;0.80;;
50531;SDS011;36483;37.396;-122.212;2022-12-11T06:44:22;2.35;;;0.60;;
50531;SDS011;36483;37.396;-122.212;2022-12-11T06:46:49;3.72;;;0.95;;
50531;SDS011;36483;37.396;-122.212;2022-12-11T06:49:15;4.85;;;0.77;;
50531;SDS011;36483;37.396;-122.212;2022-12-11T06:51:41;5.13;;;0.80;;
50531;SDS011;36483;37.396;-122.212;2022-12-11T06:54:25;4.60;;;1.13;;
50531;SDS011;36483;37.396;-122.212;2022-12-11T06:56:52;6.93;;;0.80;;
50531;SDS011;36483;37.396;-122.212;2022-12-11T06:59:18;6.18;;;1.20;;
50531;SDS011;36483;37.396;-122.212;2022-12-11T07:01:44;5.47;;;1.10;;
50531;SDS011;36483;37.396;-122.212;2022-12-11T07:04:11;3.50;;;0.68;;
50531;SDS011;36483;37.396;-122.212;2022-12-11T07:06:37;7.30;;;1.02;;
50531;SDS011;36483;37.396;-122.212;2022-12-11T07:09:03;4.20;;;0.80;;
50531;SDS011;36483;37.396;-122.212;2022-12-11T07:11:30;5.65;;;1.00;;
50531;SDS011;36483;37.396;-122.212;2022-12-11T07:13:59;7.75;;;1.02;;
50531;SDS011;36483;37.396;-122.212;2022-12-11T07:16:25;3.75;;;1.05;;
50531;SDS011;36483;37.396;-122.212;2022-12-11T07:18:51;4.72;;;1.10;;
50531;SDS011;36483;37.396;-122.212;2022-12-11T07:21:18;4.85;;;1.13;;
50531;SDS011;36483;37.396;-122.212;2022-12-11T07:23:45;5.40;;;1.08;;
50531;SDS011;36483;37.396;-122.212;2022-12-11T07:26:13;10.45;;;1.33;;
50531;SDS011;36483;37.396;-122.212;2022-12-11T07:28:40;5.28;;;1.10;;
50531;SDS011;36483;37.396;-122.212;2022-12-11T07:31:08;3.42;;;1.15;;
50531;SDS011;36483;37.396;-122.212;2022-12-11T07:33:35;2.15;;;0.77;;
50531;SDS011;36483;37.396;-122.212;2022-12-11T07:36:02;2.20;;;0.45;;
50531;SDS011;36483;37.396;-122.212;2022-12-11T07:38:29;0.93;;;0.40;;
50531;SDS011;36483;37.396;-122.212;2022-12-11T07:40:55;2.25;;;0.50;;
50531;SDS011;36483;37.396;-122.212;2022-12-11T07:43:26;1.08;;;0.43;;
50531;SDS011;36483;37.396;-122.212;2022-12-11T07:45:52;0.90;;;0.45;;
50531;SDS011;36483;37.396;-122.212;2022-12-11T07:48:18;2.58;;;0.60;;
50531;SDS011;36483;37.396;-122.212;2022-12-11T07:50:44;4.47;;;0.57;;
50531;SDS011;36483;37.396;-122.212;2022-12-11T07:53:10;0.60;;;0.40;;
50531;SDS011;36483;37.396;-122.212;2022-12-11T07:55:36;1.42;;;0.65;;
50531;SDS011;36483;37.396;-122.212;2022-12-11T07:58:02;1.77;;;0.30;;
50531;SDS011;36483;37.396;-122.212;2022-12-11T08:00:28;0.98;;;0.30;;
50531;SDS011;36483;37.396;-122.212;2022-12-11T08:02:54;3.33;;;0.50;;
50531;SDS011;36483;37.396;-122.212;2022-12-11T08:05:21;1.00;;;0.43;;
50531;SDS011;36483;37.396;-122.212;2022-12-11T08:07:47;1.15;;;0.43;;
50531;SDS011;36483;37.396;-122.212;2022-12-11T08:10:13;3.00;;;0.52;;
50531;SDS011;36483;37.396;-122.212;2022-12-11T08:12:39;6.00;;;0.63;;
50531;SDS011;36483;37.396;-122.212;2022-12-11T08:15:05;2.05;;;0.40;;
50531;SDS011;36483;37.396;-122.212;2022-12-11T08:17:32;2.85;;;0.77;;
50531;SDS011;36483;37.396;-122.212;2022-12-11T08:19:58;1.10;;;0.55;;
50531;SDS011;36483;37.396;-122.212;2022-12-11T08:22:24;3.90;;;0.52;;
50531;SDS011;36483;37.396;-122.212;2022-12-11T08:24:50;2.25;;;0.40;;
50531;SDS011;36483;37.396;-122.212;2022-12-11T08:27:16;2.58;;;0.65;;
50531;SDS011;36483;37.396;-122.212;2022-12-11T08:29:42;2.30;;;0.75;;
50531;SDS011;36483;37.396;-122.212;2022-12-11T08:32:09;1.52;;;0.60;;
50531;SDS011;36483;37.396;-122.212;2022-12-11T08:34:37;2.92;;;0.50;;
50531;SDS011;36483;37.396;-122.212;2022-12-11T08:37:04;2.80;;;0.50;;
50531;SDS011;36483;37.396;-122.212;2022-12-11T08:39:30;1.75;;;0.50;;
50531;SDS011;36483;37.396;-122.212;2022-12-11T08:41:56;1.55;;;0.45;;
50531;SDS011;36483;37.396;-122.212;2022-12-11T08:44:22;2.80;;;0.57;;
50531;SDS011;36483;37.396;-122.212;2022-12-11T08:46:50;1.52;;;0.50;;
50531;SDS011;36483;37.396;-122.212;2022-12-11T08:49:17;3.80;;;0.50;;
50531;SDS011;36483;37.396;-122.212;2022-12-11T08:51:43;2.25;;;0.50;;
50531;SDS011;36483;37.396;-122.212;2022-12-11T08:54:09;4.68;;;0.75;;
50531;SDS011;36483;37.396;-122.212;2022-12-11T08:56:35;1.80;;;0.50;;
50531;SDS011;36483;37.396;-122.212;2022-12-11T08:59:02;3.33;;;0.73;;
50531;SDS011;36483;37.396;-122.212;2022-12-11T09:01:28;1.90;;;0.60;;
50531;SDS011;36483;37.396;-122.212;2022-12-11T09:03:54;2.30;;;0.50;;
50531;SDS011;36483;37.396;-122.212;2022-12-11T09:06:22;3.15;;;0.60;;
50531;SDS011;36483;37.396;-122.212;2022-12-11T09:08:50;1.92;;;0.70;;
50531;SDS011;36483;37.396;-122.212;2022-12-11T09:11:18;4.30;;;0.65;;
50531;SDS011;36483;37.396;-122.212;2022-12-11T09:13:54;2.85;;;0.60;;
50531;SDS011;36483;37.396;-122.212;2022-12-11T09:16:21;2.22;;;0.70;;
50531;SDS011;36483;37.396;-122.212;2022-12-11T09:18:49;2.42;;;0.93;;
50531;SDS011;36483;37.396;-122.212;2022-12-11T09:21:17;2.45;;;0.63;;
50531;SDS011;36483;37.396;-122.212;2022-12-11T09:23:45;2.05;;;0.50;;
50531;SDS011;36483;37.396;-122.212;2022-12-11T09:26:13;7.30;;;0.98;;
50531;SDS011;36483;37.396;-122.212;2022-12-11T09:28:41;2.30;;;0.73;;
50531;SDS011;36483;37.396;-122.212;2022-12-11T09:31:09;1.90;;;0.80;;
50531;SDS011;36483;37.396;-122.212;2022-12-11T09:33:36;2.83;;;0.82;;
50531;SDS011;36483;37.396;-122.212;2022-12-11T09:36:02;6.43;;;0.80;;
50531;SDS011;36483;37.396;-122.212;2022-12-11T09:38:29;3.70;;;1.08;;
50531;SDS011;36483;37.396;-122.212;2022-12-11T09:40:56;7.03;;;1.38;;
50531;SDS011;36483;37.396;-122.212;2022-12-11T09:43:45;7.32;;;1.42;;
50531;SDS011;36483;37.396;-122.212;2022-12-11T09:46:14;6.93;;;1.08;;
50531;SDS011;36483;37.396;-122.212;2022-12-11T09:48:42;5.55;;;1.10;;
50531;SDS011;36483;37.396;-122.212;2022-12-11T09:53:52;4.15;;;1.27;;
50531;SDS011;36483;37.396;-122.212;2022-12-11T09:59:01;3.00;;;0.80;;
50531;SDS011;36483;37.396;-122.212;2022-12-11T10:07:14;4.97;;;1.05;;
50531;SDS011;36483;37.396;-122.212;2022-12-11T10:12:40;5.15;;;1.02;;
50531;SDS011;36483;37.396;-122.212;2022-12-11T10:15:20;4.90;;;0.90;;
50531;SDS011;36483;37.396;-122.212;2022-12-11T10:17:49;5.30;;;0.90;;
50531;SDS011;36483;37.396;-122.212;2022-12-11T10:20:18;4.72;;;0.95;;
50531;SDS011;36483;37.396;-122.212;2022-12-11T10:22:51;7.45;;;1.20;;
50531;SDS011;36483;37.396;-122.212;2022-12-11T10:25:20;3.80;;;0.75;;
50531;SDS011;36483;37.396;-122.212;2022-12-11T10:30:20;1.52;;;0.70;;
50531;SDS011;36483;37.396;-122.212;2022-12-11T10:35:41;2.33;;;0.60;;
50531;SDS011;36483;37.396;-122.212;2022-12-11T10:41:00;3.50;;;0.50;;
50531;SDS011;36483;37.396;-122.212;2022-12-11T10:43:38;3.97;;;0.82;;
50531;SDS011;36483;37.396;-122.212;2022-12-11T10:46:20;5.15;;;0.80;;
50531;SDS011;36483;37.396;-122.212;2022-12-11T10:48:47;5.88;;;0.80;;
50531;SDS011;36483;37.396;-122.212;2022-12-11T10:51:33;4.50;;;0.70;;
50531;SDS011;36483;37.396;-122.212;2022-12-11T10:57:02;6.32;;;0.73;;
50531;SDS011;36483;37.396;-122.212;2022-12-11T10:59:51;5.30;;;1.05;;
50531;SDS011;36483;37.396;-122.212;2022-12-11T11:07:17;2.13;;;0.50;;
50531;SDS011;36483;37.396;-122.212;2022-12-11T11:09:48;3.80;;;0.50;;
50531;SDS011;36483;37.396;-122.212;2022-12-11T11:12:22;2.50;;;0.60;;
50531;SDS011;36483;37.396;-122.212;2022-12-11T11:15:36;4.53;;;0.50;;
50531;SDS011;36483;37.396;-122.212;2022-12-11T11:17:55;3.22;;;0.75;;
50531;SDS011;36483;37.396;-122.212;2022-12-11T11:20:36;4.35;;;0.85;;
50531;SDS011;36483;37.396;-122.212;2022-12-11T11:23:10;3.63;;;0.70;;
50531;SDS011;36483;37.396;-122.212;2022-12-11T11:25:39;2.22;;;0.82;;
50531;SDS011;36483;37.396;-122.212;2022-12-11T11:28:17;2.65;;;0.70;;
50531;SDS011;36483;37.396;-122.212;2022-12-11T11:30:53;3.28;;;0.70;;
50531;SDS011;36483;37.396;-122.212;2022-12-11T11:33:31;2.63;;;0.55;;
50531;SDS011;36483;37.396;-122.212;2022-12-11T11:36:00;5.40;;;0.70;;
50531;SDS011;36483;37.396;-122.212;2022-12-11T11:38:40;5.57;;;0.80;;
50531;SDS011;36483;37.396;-122.212;2022-12-11T11:41:28;2.20;;;0.60;;
50531;SDS011;36483;37.396;-122.212;2022-12-11T11:44:11;3.22;;;0.60;;
50531;SDS011;36483;37.396;-122.212;2022-12-11T11:46:48;5.25;;;0.77;;
50531;SDS011;36483;37.396;-122.212;2022-12-11T11:52:06;3.50;;;0.75;;
50531;SDS011;36483;37.396;-122.212;2022-12-11T11:55:12;2.78;;;0.57;;
50531;SDS011;36483;37.396;-122.212;2022-12-11T11:57:45;6.65;;;0.70;;
50531;SDS011;36483;37.396;-122.212;2022-12-11T12:00:16;2.13;;;0.50;;
50531;SDS011;36483;37.396;-122.212;2022-12-11T12:02:45;3.90;;;0.60;;
50531;SDS011;36483;37.396;-122.212;2022-12-11T12:05:13;1.30;;;0.55;;
50531;SDS011;36483;37.396;-122.212;2022-12-11T12:10:19;0.60;;;0.30;;
50531;SDS011;36483;37.396;-122.212;2022-12-11T12:47:43;3.38;;;0.63;;
50531;SDS011;36483;37.396;-122.212;2022-12-11T12:50:12;1.48;;;0.50;;
50531;SDS011;36483;37.396;-122.212;2022-12-11T12:52:41;1.13;;;0.60;;
50531;SDS011;36483;37.396;-122.212;2022-12-11T12:55:26;1.58;;;0.73;;
50531;SDS011;36483;37.396;-122.212;2022-12-11T12:57:55;1.85;;;0.75;;
50531;SDS011;36483;37.396;-122.212;2022-12-11T13:03:11;3.83;;;0.70;;
50531;SDS011;36483;37.396;-122.212;2022-12-11T13:05:43;7.18;;;0.90;;
50531;SDS011;36483;37.396;-122.212;2022-12-11T13:08:23;3.33;;;0.60;;
50531;SDS011;36483;37.396;-122.212;2022-12-11T13:10:57;1.38;;;0.43;;
50531;SDS011;36483;37.396;-122.212;2022-12-11T13:13:31;2.33;;;0.50;;
50531;SDS011;36483;37.396;-122.212;2022-12-11T13:16:05;1.92;;;0.60;;
50531;SDS011;36483;37.396;-122.212;2022-12-11T13:18:37;5.35;;;0.63;;
50531;SDS011;36483;37.396;-122.212;2022-12-11T13:26:37;2.30;;;0.60;;
50531;SDS011;36483;37.396;-122.212;2022-12-11T13:29:04;2.78;;;0.65;;
50531;SDS011;36483;37.396;-122.212;2022-12-11T13:31:37;3.15;;;0.70;;
50531;SDS011;36483;37.396;-122.212;2022-12-11T13:34:22;3.20;;;0.65;;
50531;SDS011;36483;37.396;-122.212;2022-12-11T13:36:52;6.47;;;0.85;;
50531;SDS011;36483;37.396;-122.212;2022-12-11T13:42:07;2.78;;;0.60;;
50531;SDS011;36483;37.396;-122.212;2022-12-11T13:45:05;2.65;;;0.60;;
50531;SDS011;36483;37.396;-122.212;2022-12-11T13:47:40;0.98;;;0.50;;
50531;SDS011;36483;37.396;-122.212;2022-12-11T13:50:40;2.50;;;0.70;;
50531;SDS011;36483;37.396;-122.212;2022-12-11T13:52:59;1.58;;;0.70;;
50531;SDS011;36483;37.396;-122.212;2022-12-11T13:57:54;2.45;;;0.50;;
50531;SDS011;36483;37.396;-122.212;2022-12-11T14:00:22;2.80;;;0.57;;
50531;SDS011;36483;37.396;-122.212;2022-12-11T14:02:53;1.83;;;0.55;;
50531;SDS011;36483;37.396;-122.212;2022-12-11T14:05:21;3.60;;;0.50;;
50531;SDS011;36483;37.396;-122.212;2022-12-11T14:07:48;1.30;;;0.40;;
50531;SDS011;36483;37.396;-122.212;2022-12-11T14:10:17;4.10;;;0.90;;
50531;SDS011;36483;37.396;-122.212;2022-12-11T14:15:27;2.10;;;0.40;;
50531;SDS011;36483;37.396;-122.212;2022-12-11T14:17:53;4.85;;;0.90;;
50531;SDS011;36483;37.396;-122.212;2022-12-11T14:20:30;3.55;;;1.15;;
50531;SDS011;36483;37.396;-122.212;2022-12-11T14:23:05;4.88;;;0.70;;
50531;SDS011;36483;37.396;-122.212;2022-12-11T14:25:32;2.72;;;0.60;;
50531;SDS011;36483;37.396;-122.212;2022-12-11T14:27:58;4.65;;;0.85;;
50531;SDS011;36483;37.396;-122.212;2022-12-11T14:30:27;4.18;;;0.90;;
50531;SDS011;36483;37.396;-122.212;2022-12-11T14:32:59;2.97;;;0.90;;
50531;SDS011;36483;37.396;-122.212;2022-12-11T14:35:37;3.17;;;0.50;;
50531;SDS011;36483;37.396;-122.212;2022-12-11T14:38:19;2.65;;;0.60;;
50531;SDS011;36483;37.396;-122.212;2022-12-11T14:40:48;3.17;;;0.73;;
50531;SDS011;36483;37.396;-122.212;2022-12-11T14:43:21;3.47;;;0.98;;
50531;SDS011;36483;37.396;-122.212;2022-12-11T14:45:49;3.13;;;0.60;;
50531;SDS011;36483;37.396;-122.212;2022-12-11T14:48:27;1.23;;;0.50;;
50531;SDS011;36483;37.396;-122.212;2022-12-11T14:51:00;2.72;;;0.50;;
50531;SDS011;36483;37.396;-122.212;2022-12-11T14:53:30;3.25;;;0.45;;
50531;SDS011;36483;37.396;-122.212;2022-12-11T14:56:06;1.23;;;0.60;;
50531;SDS011;36483;37.396;-122.212;2022-12-11T14:58:36;1.92;;;0.40;;
50531;SDS011;36483;37.396;-122.212;2022-12-11T15:01:07;1.23;;;0.38;;
50531;SDS011;36483;37.396;-122.212;2022-12-11T15:04:00;0.90;;;0.40;;
50531;SDS011;36483;37.396;-122.212;2022-12-11T15:06:45;1.95;;;0.40;;
50531;SDS011;36483;37.396;-122.212;2022-12-11T15:12:12;1.10;;;0.40;;
50531;SDS011;36483;37.396;-122.212;2022-12-11T15:17:13;2.05;;;0.50;;
50531;SDS011;36483;37.396;-122.212;2022-12-11T15:19:40;2.30;;;0.38;;
50531;SDS011;36483;37.396;-122.212;2022-12-11T15:22:07;1.77;;;0.50;;
50531;SDS011;36483;37.396;-122.212;2022-12-11T15:24:38;2.13;;;0.30;;
50531;SDS011;36483;37.396;-122.212;2022-12-11T15:27:15;0.98;;;0.60;;
50531;SDS011;36483;37.396;-122.212;2022-12-11T15:29:55;3.15;;;0.70;;
50531;SDS011;36483;37.396;-122.212;2022-12-11T15:32:21;7.68;;;0.73;;
50531;SDS011;36483;37.396;-122.212;2022-12-11T15:34:51;1.83;;;0.43;;
50531;SDS011;36483;37.396;-122.212;2022-12-11T15:39:56;3.33;;;0.40;;
50531;SDS011;36483;37.396;-122.212;2022-12-11T15:42:28;2.80;;;0.50;;
50531;SDS011;36483;37.396;-122.212;2022-12-11T15:44:56;2.78;;;0.60;;
50531;SDS011;36483;37.396;-122.212;2022-12-11T15:47:23;4.25;;;0.70;;
50531;SDS011;36483;37.396;-122.212;2022-12-11T15:49:56;3.70;;;0.82;;
50531;SDS011;36483;37.396;-122.212;2022-12-11T15:52:24;3.55;;;0.77;;
50531;SDS011;36483;37.396;-122.212;2022-12-11T15:54:50;5.00;;;1.10;;
50531;SDS011;36483;37.396;-122.212;2022-12-11T15:57:18;7.10;;;0.82;;
50531;SDS011;36483;37.396;-122.212;2022-12-11T15:59:46;3.38;;;0.63;;
50531;SDS011;36483;37.396;-122.212;2022-12-11T16:02:13;2.28;;;0.70;;
50531;SDS011;36483;37.396;-122.212;2022-12-11T16:04:40;2.53;;;0.60;;
50531;SDS011;36483;37.396;-122.212;2022-12-11T16:07:16;3.28;;;0.93;;
50531;SDS011;36483;37.396;-122.212;2022-12-11T16:09:46;2.33;;;0.82;;
50531;SDS011;36483;37.396;-122.212;2022-12-11T16:12:13;5.00;;;0.80;;
50531;SDS011;36483;37.396;-122.212;2022-12-11T16:14:39;1.95;;;0.73;;
50531;SDS011;36483;37.396;-122.212;2022-12-11T16:17:07;1.67;;;0.52;;
50531;SDS011;36483;37.396;-122.212;2022-12-11T16:19:34;5.80;;;0.77;;
50531;SDS011;36483;37.396;-122.212;2022-12-11T16:22:00;1.83;;;0.60;;
50531;SDS011;36483;37.396;-122.212;2022-12-11T16:24:27;2.90;;;0.88;;
50531;SDS011;36483;37.396;-122.212;2022-12-11T16:26:53;2.78;;;0.85;;